createdAt,value
2019-04-20T00:00:23.675Z,1025.32
2019-04-20T00:01:31.290Z,1025.34
2019-04-20T00:02:25.374Z,1025.33
2019-04-20T00:03:29.947Z,1025.31
2019-04-20T00:04:26.955Z,1025.28
2019-04-20T00:05:23.277Z,1025.28
2019-04-20T00:06:42.945Z,1025.28
2019-04-20T00:07:25.699Z,1025.29
2019-04-20T00:08:26.494Z,1025.30
2019-04-20T00:09:26.560Z,1025.29
2019-04-20T00:10:24.650Z,1025.31
2019-04-20T00:11:28.356Z,1025.28
2019-04-20T00:12:34.372Z,1025.27
2019-04-20T00:13:33.234Z,1025.30
2019-04-20T00:14:26.321Z,1025.28
2019-04-20T00:15:23.955Z,1025.28
2019-04-20T00:16:23.106Z,1025.28
2019-04-20T00:17:22.242Z,1025.27
2019-04-20T00:18:25.931Z,1025.28
2019-04-20T00:19:31.338Z,1025.29
2019-04-20T00:20:26.327Z,1025.27
2019-04-20T00:21:22.649Z,1025.26
2019-04-20T00:22:24.631Z,1025.29
2019-04-20T00:23:29.345Z,1025.29
2019-04-20T00:24:27.642Z,1025.29
2019-04-20T00:25:24.061Z,1025.19
2019-04-20T00:26:33.817Z,1025.26
2019-04-20T00:27:43.092Z,1025.23
2019-04-20T00:28:40.772Z,1025.18
2019-04-20T00:29:40.583Z,1025.20
2019-04-20T00:30:41.578Z,1025.17
2019-04-20T00:31:39.180Z,1025.19
2019-04-20T00:32:37.653Z,1025.20
2019-04-20T00:33:33.456Z,1025.19
2019-04-20T00:34:26.662Z,1025.19
2019-04-20T00:35:21.013Z,1025.19
2019-04-20T00:36:22.085Z,1025.19
2019-04-20T00:37:23.340Z,1025.15
2019-04-20T00:38:21.651Z,1025.15
2019-04-20T00:39:21.768Z,1025.14
2019-04-20T00:40:21.520Z,1025.15
2019-04-20T00:41:21.251Z,1025.16
2019-04-20T00:42:31.158Z,1025.14
2019-04-20T00:43:26.489Z,1025.16
2019-04-20T00:44:26.014Z,1025.21
2019-04-20T00:45:26.880Z,1025.19
2019-04-20T00:46:27.851Z,1025.19
2019-04-20T00:47:34.388Z,1025.18
2019-04-20T00:48:32.874Z,1025.20
2019-04-20T00:49:36.254Z,1025.18
2019-04-20T00:50:36.712Z,1025.20
2019-04-20T00:51:35.314Z,1025.23
2019-04-20T00:52:51.324Z,1025.18
2019-04-20T00:53:28.083Z,1025.19
2019-04-20T00:54:20.149Z,1025.21
2019-04-20T00:55:27.319Z,1025.20
2019-04-20T00:56:20.168Z,1025.17
2019-04-20T00:57:30.581Z,1025.26
2019-04-20T00:58:27.352Z,1025.23
2019-04-20T00:59:31.686Z,1025.21
2019-04-20T01:00:37.091Z,1025.25
2019-04-20T01:01:37.941Z,1025.24
2019-04-20T01:02:29.889Z,1025.19
2019-04-20T01:03:33.895Z,1025.21
2019-04-20T01:04:38.850Z,1025.20
2019-04-20T01:05:35.513Z,1025.20
2019-04-20T01:06:34.135Z,1025.20
2019-04-20T01:07:32.011Z,1025.20
2019-04-20T01:08:19.080Z,1025.22
2019-04-20T01:09:18.325Z,1025.21
2019-04-20T01:10:19.246Z,1025.23
2019-04-20T01:11:28.813Z,1025.24
2019-04-20T01:12:23.305Z,1025.26
2019-04-20T01:13:21.857Z,1025.23
2019-04-20T01:14:30.500Z,1025.24
2019-04-20T01:15:31.328Z,1025.22
2019-04-20T01:16:29.344Z,1025.23
2019-04-20T01:17:17.415Z,1025.25
2019-04-20T01:18:17.221Z,1025.22
2019-04-20T01:19:19.291Z,1025.25
2019-04-20T01:20:17.234Z,1025.24
2019-04-20T01:21:21.538Z,1025.25
2019-04-20T01:22:21.877Z,1025.24
2019-04-20T01:23:20.734Z,1025.26
2019-04-20T01:24:26.164Z,1025.29
2019-04-20T01:25:24.370Z,1025.30
2019-04-20T01:26:19.710Z,1025.27
2019-04-20T01:27:27.422Z,1025.29
2019-04-20T01:28:33.610Z,1025.30
2019-04-20T01:29:24.977Z,1025.31
2019-04-20T01:30:25.183Z,1025.27
2019-04-20T01:31:27.490Z,1025.33
2019-04-20T01:32:26.702Z,1025.27
2019-04-20T01:33:28.073Z,1025.32
2019-04-20T01:34:34.551Z,1025.30
2019-04-20T01:35:38.166Z,1025.28
2019-04-20T01:36:37.052Z,1025.35
2019-04-20T01:37:29.783Z,1025.28
2019-04-20T01:38:30.517Z,1025.33
2019-04-20T01:39:25.282Z,1025.31
2019-04-20T01:40:15.399Z,1025.32
2019-04-20T01:41:16.134Z,1025.34
2019-04-20T01:42:15.237Z,1025.30
2019-04-20T01:43:16.245Z,1025.32
2019-04-20T01:44:19.594Z,1025.32
2019-04-20T01:45:25.014Z,1025.33
2019-04-20T01:46:20.138Z,1025.36
2019-04-20T01:47:15.078Z,1025.37
2019-04-20T01:48:22.058Z,1025.42
2019-04-20T01:49:20.207Z,1025.43
2019-04-20T01:50:20.938Z,1025.40
2019-04-20T01:51:22.468Z,1025.40
2019-04-20T01:52:20.058Z,1025.39
2019-04-20T01:53:23.618Z,1025.37
2019-04-20T01:54:29.807Z,1025.38
2019-04-20T01:55:33.233Z,1025.39
2019-04-20T01:56:27.715Z,1025.37
2019-04-20T01:57:21.661Z,1025.36
2019-04-20T01:58:35.187Z,1025.36
2019-04-20T01:59:23.014Z,1025.38
2019-04-20T02:00:21.130Z,1025.39
2019-04-20T02:01:21.019Z,1025.38
2019-04-20T02:02:17.777Z,1025.41
2019-04-20T02:03:14.909Z,1025.41
2019-04-20T02:04:20.366Z,1025.42
2019-04-20T02:05:21.133Z,1025.40
2019-04-20T02:06:17.899Z,1025.45
2019-04-20T02:07:13.642Z,1025.46
2019-04-20T02:08:18.339Z,1025.45
2019-04-20T02:09:17.282Z,1025.40
2019-04-20T02:10:15.131Z,1025.44
2019-04-20T02:11:20.579Z,1025.45
2019-04-20T02:12:21.683Z,1025.45
2019-04-20T02:13:12.988Z,1025.47
2019-04-20T02:14:14.313Z,1025.45
2019-04-20T02:15:22.179Z,1025.46
2019-04-20T02:16:22.611Z,1025.50
2019-04-20T02:17:21.360Z,1025.51
2019-04-20T02:18:29.692Z,1025.51
2019-04-20T02:19:26.347Z,1025.49
2019-04-20T02:20:33.316Z,1025.54
2019-04-20T02:21:30.018Z,1025.56
2019-04-20T02:22:22.930Z,1025.53
2019-04-20T02:23:24.969Z,1025.52
2019-04-20T02:24:13.121Z,1025.52
2019-04-20T02:25:12.152Z,1025.52
2019-04-20T02:26:12.878Z,1025.49
2019-04-20T02:27:12.614Z,1025.52
2019-04-20T02:28:27.295Z,1025.50
2019-04-20T02:29:35.044Z,1025.46
2019-04-20T02:30:53.936Z,1025.47
2019-04-20T02:32:43.001Z,1025.47
2019-04-20T02:33:55.781Z,1025.47
2019-04-20T02:35:42.587Z,1025.49
2019-04-20T02:36:51.607Z,1025.48
2019-04-20T02:37:56.868Z,1025.48
2019-04-20T02:39:07.232Z,1025.50
2019-04-20T02:41:44.883Z,1025.49
2019-04-20T02:42:50.978Z,1025.48
2019-04-20T02:44:06.046Z,1025.53
2019-04-20T02:45:50.822Z,1025.51
2019-04-20T02:46:56.888Z,1025.51
2019-04-20T02:48:45.539Z,1025.50
2019-04-20T02:49:49.457Z,1025.51
2019-04-20T02:50:43.285Z,1025.53
2019-04-20T02:52:48.948Z,1025.56
2019-04-20T02:53:51.415Z,1025.55
2019-04-20T02:54:45.965Z,1025.58
2019-04-20T02:55:41.773Z,1025.60
2019-04-20T02:57:47.871Z,1025.57
2019-04-20T02:58:41.924Z,1025.56
2019-04-20T03:00:44.746Z,1025.54
2019-04-20T03:01:26.755Z,1025.55
2019-04-20T03:02:23.680Z,1025.54
2019-04-20T03:03:20.050Z,1025.54
2019-04-20T03:04:20.281Z,1025.56
2019-04-20T03:05:20.693Z,1025.53
2019-04-20T03:06:20.744Z,1025.56
2019-04-20T03:07:25.579Z,1025.54
2019-04-20T03:08:22.154Z,1025.51
2019-04-20T03:09:31.551Z,1025.53
2019-04-20T03:10:37.215Z,1025.55
2019-04-20T03:12:33.480Z,1025.54
2019-04-20T03:13:18.599Z,1025.54
2019-04-20T03:14:21.751Z,1025.48
2019-04-20T03:15:33.784Z,1025.53
2019-04-20T03:16:26.369Z,1025.54
2019-04-20T03:17:32.723Z,1025.54
2019-04-20T03:18:25.562Z,1025.53
2019-04-20T03:19:22.000Z,1025.54
2019-04-20T03:20:30.246Z,1025.54
2019-04-20T03:21:33.309Z,1025.53
2019-04-20T03:22:34.998Z,1025.54
2019-04-20T03:24:35.732Z,1025.49
2019-04-20T03:25:29.711Z,1025.51
2019-04-20T03:26:29.877Z,1025.52
2019-04-20T03:27:25.146Z,1025.49
2019-04-20T03:28:25.914Z,1025.49
2019-04-20T03:29:24.618Z,1025.53
2019-04-20T03:31:12.048Z,1025.50
2019-04-20T03:32:08.457Z,1025.50
2019-04-20T03:32:57.943Z,1025.54
2019-04-20T03:33:50.968Z,1025.50
2019-04-20T03:34:55.368Z,1025.51
2019-04-20T03:35:29.848Z,1025.48
2019-04-20T03:36:34.963Z,1025.49
2019-04-20T03:37:33.138Z,1025.50
2019-04-20T03:38:27.150Z,1025.56
2019-04-20T03:39:23.275Z,1025.53
2019-04-20T03:40:22.693Z,1025.50
2019-04-20T03:41:18.518Z,1025.51
2019-04-20T03:42:07.172Z,1025.49
2019-04-20T03:43:05.632Z,1025.48
2019-04-20T03:44:10.562Z,1025.51
2019-04-20T03:45:09.770Z,1025.49
2019-04-20T03:46:10.618Z,1025.52
2019-04-20T03:47:08.865Z,1025.52
2019-04-20T03:48:17.159Z,1025.55
2019-04-20T03:49:27.858Z,1025.56
2019-04-20T03:50:30.987Z,1025.55
2019-04-20T03:51:30.386Z,1025.55
2019-04-20T03:52:26.164Z,1025.54
2019-04-20T03:53:22.656Z,1025.53
2019-04-20T03:54:22.249Z,1025.58
2019-04-20T03:55:23.973Z,1025.57
2019-04-20T03:56:28.565Z,1025.54
2019-04-20T03:57:29.725Z,1025.52
2019-04-20T03:58:24.196Z,1025.58
2019-04-20T03:59:17.707Z,1025.55
2019-04-20T04:00:22.881Z,1025.57
2019-04-20T04:01:43.161Z,1025.58
2019-04-20T04:03:29.454Z,1025.62
2019-04-20T04:04:31.231Z,1025.59
2019-04-20T04:05:17.622Z,1025.57
2019-04-20T04:06:16.151Z,1025.60
2019-04-20T04:07:16.696Z,1025.56
2019-04-20T04:08:14.999Z,1025.58
2019-04-20T04:09:19.212Z,1025.55
2019-04-20T04:10:17.180Z,1025.55
2019-04-20T04:11:22.063Z,1025.50
2019-04-20T04:12:12.185Z,1025.57
2019-04-20T04:13:05.173Z,1025.57
2019-04-20T04:14:03.005Z,1025.55
2019-04-20T04:15:02.579Z,1025.57
2019-04-20T04:16:07.919Z,1025.58
2019-04-20T04:17:03.935Z,1025.55
2019-04-20T04:18:05.979Z,1025.55
2019-04-20T04:19:15.417Z,1025.59
2019-04-20T04:20:08.557Z,1025.57
2019-04-20T04:21:08.212Z,1025.59
2019-04-20T04:22:17.213Z,1025.59
2019-04-20T04:23:19.213Z,1025.57
2019-04-20T04:24:14.338Z,1025.61
2019-04-20T04:25:16.992Z,1025.59
2019-04-20T04:26:24.649Z,1025.59
2019-04-20T04:27:15.021Z,1025.59
2019-04-20T04:29:24.589Z,1025.65
2019-04-20T04:30:14.218Z,1025.61
2019-04-20T04:31:21.500Z,1025.66
2019-04-20T04:32:33.074Z,1025.67
2019-04-20T04:33:48.390Z,1025.68
2019-04-20T04:34:20.662Z,1025.64
2019-04-20T04:35:14.985Z,1025.70
2019-04-20T04:36:17.704Z,1025.72
2019-04-20T04:37:20.161Z,1025.70
2019-04-20T04:38:24.052Z,1025.72
2019-04-20T04:39:22.872Z,1025.77
2019-04-20T04:40:34.146Z,1025.70
2019-04-20T04:41:39.841Z,1025.72
2019-04-20T04:42:30.396Z,1025.77
2019-04-20T04:43:22.204Z,1025.80
2019-04-20T04:44:17.999Z,1025.76
2019-04-20T04:45:06.232Z,1025.79
2019-04-20T04:46:01.663Z,1025.78
2019-04-20T04:47:05.155Z,1025.81
2019-04-20T04:48:00.251Z,1025.82
2019-04-20T04:49:08.861Z,1025.82
2019-04-20T04:50:09.172Z,1025.84
2019-04-20T04:51:05.126Z,1025.84
2019-04-20T04:52:07.169Z,1025.85
2019-04-20T04:53:06.471Z,1025.80
2019-04-20T04:54:10.138Z,1025.83
2019-04-20T04:55:10.880Z,1025.86
2019-04-20T04:56:05.405Z,1025.84
2019-04-20T04:56:59.006Z,1025.89
2019-04-20T04:58:00.143Z,1025.87
2019-04-20T04:59:00.169Z,1025.85
2019-04-20T04:59:59.417Z,1025.85
2019-04-20T05:01:05.564Z,1025.87
2019-04-20T05:02:00.065Z,1025.88
2019-04-20T05:03:06.947Z,1025.87
2019-04-20T05:04:21.614Z,1025.88
2019-04-20T05:05:18.072Z,1025.86
2019-04-20T05:06:13.432Z,1025.91
2019-04-20T05:07:11.440Z,1025.87
2019-04-20T05:08:07.592Z,1025.91
2019-04-20T05:09:03.266Z,1025.89
2019-04-20T05:09:59.029Z,1025.89
2019-04-20T05:10:58.336Z,1025.90
2019-04-20T05:12:05.351Z,1025.96
2019-04-20T05:12:58.809Z,1025.96
2019-04-20T05:14:03.245Z,1025.98
2019-04-20T05:15:06.157Z,1026.01
2019-04-20T05:16:07.877Z,1026.00
2019-04-20T05:17:11.431Z,1026.04
2019-04-20T05:18:18.376Z,1026.02
2019-04-20T05:19:19.238Z,1026.06
2019-04-20T05:20:16.035Z,1026.08
2019-04-20T05:21:18.350Z,1026.10
2019-04-20T05:22:17.816Z,1026.05
2019-04-20T05:23:12.755Z,1026.09
2019-04-20T05:24:13.496Z,1026.10
2019-04-20T05:25:18.398Z,1026.10
2019-04-20T05:26:22.671Z,1026.10
2019-04-20T05:27:19.025Z,1026.12
2019-04-20T05:28:14.434Z,1026.11
2019-04-20T05:29:06.454Z,1026.14
2019-04-20T05:29:59.091Z,1026.11
2019-04-20T05:30:59.822Z,1026.13
2019-04-20T05:32:03.483Z,1026.15
2019-04-20T05:33:04.219Z,1026.13
2019-04-20T05:34:20.406Z,1026.08
2019-04-20T05:35:33.628Z,1026.10
2019-04-20T05:37:27.526Z,1026.09
2019-04-20T05:38:25.618Z,1026.09
2019-04-20T05:39:22.442Z,1026.10
2019-04-20T05:40:16.292Z,1026.12
2019-04-20T05:41:17.207Z,1026.10
2019-04-20T05:42:18.863Z,1026.11
2019-04-20T05:43:15.528Z,1026.15
2019-04-20T05:44:08.782Z,1026.19
2019-04-20T05:45:11.781Z,1026.21
2019-04-20T05:46:17.907Z,1026.21
2019-04-20T05:47:16.959Z,1026.18
2019-04-20T05:48:11.867Z,1026.22
2019-04-20T05:49:19.090Z,1026.23
2019-04-20T05:50:08.296Z,1026.20
2019-04-20T05:51:21.053Z,1026.26
2019-04-20T05:52:24.154Z,1026.23
2019-04-20T05:53:16.120Z,1026.24
2019-04-20T05:54:19.925Z,1026.28
2019-04-20T05:55:19.510Z,1026.24
2019-04-20T05:56:08.884Z,1026.27
2019-04-20T05:57:21.098Z,1026.29
2019-04-20T05:58:20.155Z,1026.26
2019-04-20T05:59:11.647Z,1026.31
2019-04-20T06:00:13.549Z,1026.30
2019-04-20T06:01:15.559Z,1026.35
2019-04-20T06:02:17.063Z,1026.34
2019-04-20T06:03:11.175Z,1026.42
2019-04-20T06:04:09.990Z,1026.38
2019-04-20T06:05:17.784Z,1026.40
2019-04-20T06:06:15.204Z,1026.44
2019-04-20T06:07:15.189Z,1026.44
2019-04-20T06:08:15.327Z,1026.43
2019-04-20T06:09:17.762Z,1026.45
2019-04-20T06:10:11.479Z,1026.42
2019-04-20T06:11:17.943Z,1026.46
2019-04-20T06:12:33.166Z,1026.46
2019-04-20T06:13:11.427Z,1026.46
2019-04-20T06:14:03.735Z,1026.51
2019-04-20T06:15:08.006Z,1026.49
2019-04-20T06:16:07.809Z,1026.52
2019-04-20T06:17:16.099Z,1026.51
2019-04-20T06:18:06.288Z,1026.55
2019-04-20T06:19:24.388Z,1026.53
2019-04-20T06:20:11.335Z,1026.56
2019-04-20T06:21:19.563Z,1026.55
2019-04-20T06:22:24.689Z,1026.56
2019-04-20T06:23:19.557Z,1026.57
2019-04-20T06:24:18.348Z,1026.60
2019-04-20T06:25:33.459Z,1026.59
2019-04-20T06:26:26.408Z,1026.63
2019-04-20T06:27:08.281Z,1026.69
2019-04-20T06:28:06.620Z,1026.65
2019-04-20T06:29:10.165Z,1026.60
2019-04-20T06:30:06.931Z,1026.67
2019-04-20T06:31:14.766Z,1026.65
2019-04-20T06:32:23.367Z,1026.68
2019-04-20T06:33:19.169Z,1026.72
2019-04-20T06:34:27.162Z,1026.72
2019-04-20T06:35:19.513Z,1026.74
2019-04-20T06:37:06.886Z,1026.76
2019-04-20T06:38:29.655Z,1026.75
2019-04-20T06:39:16.271Z,1026.77
2019-04-20T06:40:29.298Z,1026.76
2019-04-20T06:43:11.152Z,1026.67
2019-04-20T06:44:26.351Z,1026.51
2019-04-20T06:45:14.817Z,1026.56
2019-04-20T06:46:14.855Z,1026.53
2019-04-20T06:48:13.767Z,1026.53
2019-04-20T06:49:19.655Z,1026.51
2019-04-20T06:50:11.152Z,1026.54
2019-04-20T06:51:15.541Z,1026.53
2019-04-20T06:52:19.077Z,1026.61
2019-04-20T06:53:17.472Z,1026.73
2019-04-20T06:54:00.788Z,1026.73
2019-04-20T06:55:05.559Z,1026.89
2019-04-20T06:56:15.621Z,1026.97
2019-04-20T06:57:10.171Z,1027.00
2019-04-20T06:58:26.096Z,1027.00
2019-04-20T06:59:12.548Z,1027.07
2019-04-20T07:00:14.424Z,1027.08
2019-04-20T07:01:11.014Z,1027.11
2019-04-20T07:02:20.004Z,1027.14
2019-04-20T07:03:18.480Z,1027.14
2019-04-20T07:04:33.527Z,1027.14
2019-04-20T07:05:13.850Z,1027.14
2019-04-20T07:06:29.594Z,1027.14
2019-04-20T07:07:15.604Z,1027.17
2019-04-20T07:08:29.049Z,1027.16
2019-04-20T07:09:19.955Z,1027.21
2019-04-20T07:11:11.096Z,1027.20
2019-04-20T07:12:08.043Z,1027.22
2019-04-20T07:13:02.691Z,1027.26
2019-04-20T07:13:55.636Z,1027.29
2019-04-20T07:14:58.614Z,1027.25
2019-04-20T07:16:08.327Z,1027.29
2019-04-20T07:17:24.852Z,1027.30
2019-04-20T07:18:11.766Z,1027.32
2019-04-20T07:19:07.837Z,1027.39
2019-04-20T07:20:04.315Z,1027.41
2019-04-20T07:21:07.271Z,1027.40
2019-04-20T07:22:21.699Z,1027.38
2019-04-20T07:23:18.114Z,1027.37
2019-04-20T07:24:14.256Z,1027.41
2019-04-20T07:25:09.531Z,1027.42
2019-04-20T07:26:09.529Z,1027.48
2019-04-20T07:27:06.451Z,1027.49
2019-04-20T07:28:15.669Z,1027.48
2019-04-20T07:29:08.732Z,1027.47
2019-04-20T07:30:09.492Z,1027.52
2019-04-20T07:31:08.278Z,1027.55
2019-04-20T07:32:01.786Z,1027.56
2019-04-20T07:33:11.411Z,1027.59
2019-04-20T07:34:07.342Z,1027.63
2019-04-20T07:35:08.507Z,1027.69
2019-04-20T07:36:04.153Z,1027.69
2019-04-20T07:37:25.744Z,1027.69
2019-04-20T07:40:13.581Z,1027.85
2019-04-20T07:41:10.219Z,1027.91
2019-04-20T07:42:10.780Z,1027.98
2019-04-20T07:43:04.415Z,1028.03
2019-04-20T07:44:14.636Z,1028.22
2019-04-20T07:45:07.188Z,1028.35
2019-04-20T07:46:10.542Z,1028.58
2019-04-20T07:47:16.633Z,1028.87
2019-04-20T07:48:13.593Z,1029.21
2019-04-20T07:49:09.625Z,1029.47
2019-04-20T07:50:02.383Z,1029.78
2019-04-20T07:50:59.201Z,1030.17
2019-04-20T07:51:47.726Z,1030.63
2019-04-20T07:52:58.792Z,1031.33
2019-04-20T07:54:16.715Z,1032.12
2019-04-20T07:55:26.270Z,1032.95
2019-04-20T07:56:04.930Z,1033.64
2019-04-20T07:57:03.527Z,1034.03
2019-04-20T07:57:57.523Z,1034.38
2019-04-20T07:58:52.675Z,1035.09
2019-04-20T08:00:06.347Z,1035.79
2019-04-20T08:01:07.967Z,1036.37
2019-04-20T08:02:10.854Z,1037.19
2019-04-20T08:03:12.170Z,1038.02
2019-04-20T08:04:11.448Z,1038.66
2019-04-20T08:05:01.762Z,1039.03
2019-04-20T08:05:55.235Z,1038.93
2019-04-20T08:06:51.895Z,1039.25
2019-04-20T08:07:53.837Z,1038.77
2019-04-20T08:08:57.261Z,1038.29
2019-04-20T08:09:51.421Z,1038.49
2019-04-20T08:11:00.732Z,1040.41
2019-04-20T08:12:14.192Z,1043.27
2019-04-20T08:13:14.126Z,1045.37
2019-04-20T08:14:06.180Z,1046.31
2019-04-20T08:15:13.385Z,1046.07
2019-04-20T08:16:07.340Z,1046.09
2019-04-20T08:17:14.304Z,1046.77
2019-04-20T08:17:59.962Z,1047.47
2019-04-20T08:19:01.319Z,1047.63
2019-04-20T08:20:05.765Z,1047.50
2019-04-20T08:21:02.409Z,1047.34
2019-04-20T08:22:08.350Z,1047.93
2019-04-20T08:22:58.617Z,1048.56
2019-04-20T08:24:02.617Z,1048.20
2019-04-20T08:24:57.676Z,1048.50
2019-04-20T08:25:52.221Z,1049.99
2019-04-20T08:26:50.608Z,1051.10
2019-04-20T08:27:44.476Z,1050.73
2019-04-20T08:28:51.969Z,1049.93
2019-04-20T08:29:57.992Z,1049.48
2019-04-20T08:31:00.901Z,1049.65
2019-04-20T08:32:04.375Z,1050.32
2019-04-20T08:32:58.437Z,1050.36
2019-04-20T08:34:15.271Z,1049.51
2019-04-20T08:35:05.137Z,1050.00
2019-04-20T08:36:07.030Z,1049.98
2019-04-20T08:37:01.656Z,1048.36
2019-04-20T08:38:26.759Z,1046.77
2019-04-20T08:40:19.499Z,1045.79
2019-04-20T08:40:57.471Z,1045.19
2019-04-20T08:42:18.660Z,1043.99
2019-04-20T08:43:11.183Z,1043.40
2019-04-20T08:44:11.140Z,1043.43
2019-04-20T08:45:03.657Z,1043.52
2019-04-20T08:46:05.516Z,1043.39
2019-04-20T08:47:14.733Z,1042.44
2019-04-20T08:48:03.172Z,1041.56
2019-04-20T08:49:04.320Z,1040.88
2019-04-20T08:50:03.563Z,1040.22
2019-04-20T08:51:02.627Z,1039.93
2019-04-20T08:52:20.955Z,1039.99
2019-04-20T08:53:16.027Z,1039.65
2019-04-20T08:53:56.396Z,1039.11
2019-04-20T08:55:01.243Z,1038.78
2019-04-20T08:55:53.792Z,1038.50
2019-04-20T08:56:50.582Z,1037.59
2019-04-20T08:57:40.802Z,1036.48
2019-04-20T08:58:41.799Z,1035.64
2019-04-20T08:59:44.363Z,1035.38
2019-04-20T09:00:48.546Z,1035.37
2019-04-20T09:01:41.006Z,1035.42
2019-04-20T09:02:41.304Z,1034.77
2019-04-20T09:03:52.959Z,1033.78
2019-04-20T09:04:48.991Z,1032.76
2019-04-20T09:05:49.924Z,1031.18
2019-04-20T09:06:53.382Z,1031.13
2019-04-20T09:07:54.151Z,1031.31
2019-04-20T09:08:50.319Z,1031.29
2019-04-20T09:10:00.350Z,1031.06
2019-04-20T09:11:00.022Z,1030.64
2019-04-20T09:12:11.953Z,1029.79
2019-04-20T09:12:54.849Z,1029.18
2019-04-20T09:13:47.555Z,1028.70
2019-04-20T09:14:41.307Z,1028.20
2019-04-20T09:15:40.442Z,1028.16
2019-04-20T09:16:50.304Z,1027.99
2019-04-20T09:17:48.486Z,1027.50
2019-04-20T09:18:47.593Z,1027.35
2019-04-20T09:19:52.502Z,1027.21
2019-04-20T09:20:49.863Z,1027.07
2019-04-20T09:21:47.958Z,1026.97
2019-04-20T09:22:51.839Z,1026.96
2019-04-20T09:23:52.215Z,1026.94
2019-04-20T09:25:03.763Z,1026.94
2019-04-20T09:26:54.590Z,1026.90
2019-04-20T09:27:45.835Z,1026.94
2019-04-20T09:28:54.326Z,1026.97
2019-04-20T09:29:49.792Z,1026.98
2019-04-20T09:30:52.049Z,1026.98
2019-04-20T09:31:52.051Z,1026.95
2019-04-20T09:32:59.525Z,1026.98
2019-04-20T09:33:58.248Z,1026.96
2019-04-20T09:35:03.491Z,1026.99
2019-04-20T09:35:53.166Z,1026.94
2019-04-20T09:36:49.321Z,1026.97
2019-04-20T09:37:53.115Z,1026.95
2019-04-20T09:38:50.007Z,1026.99
2019-04-20T09:40:00.834Z,1026.98
2019-04-20T09:40:55.497Z,1027.01
2019-04-20T09:41:59.146Z,1026.94
2019-04-20T09:42:37.869Z,1026.90
2019-04-20T09:43:38.917Z,1026.84
2019-04-20T09:44:42.879Z,1026.89
2019-04-20T09:45:42.990Z,1026.88
2019-04-20T09:46:44.398Z,1026.91
2019-04-20T09:47:43.541Z,1026.89
2019-04-20T09:48:42.912Z,1026.89
2019-04-20T09:49:50.988Z,1026.86
2019-04-20T09:50:56.504Z,1026.93
2019-04-20T09:51:50.061Z,1026.92
2019-04-20T09:52:52.611Z,1026.93
2019-04-20T09:53:48.271Z,1026.91
2019-04-20T09:54:55.127Z,1026.90
2019-04-20T09:55:59.261Z,1026.95
2019-04-20T09:57:00.643Z,1026.97
2019-04-20T09:57:54.151Z,1026.94
2019-04-20T09:58:55.236Z,1026.96
2019-04-20T09:59:53.666Z,1026.95
2019-04-20T10:00:53.019Z,1027.02
2019-04-20T10:01:44.598Z,1027.03
2019-04-20T10:02:39.272Z,1027.03
2019-04-20T10:03:36.690Z,1027.00
2019-04-20T10:04:37.583Z,1027.00
2019-04-20T10:05:37.803Z,1027.03
2019-04-20T10:06:37.628Z,1027.03
2019-04-20T10:07:38.629Z,1027.02
2019-04-20T10:08:44.749Z,1027.10
2019-04-20T10:09:39.903Z,1027.04
2019-04-20T10:10:40.495Z,1027.05
2019-04-20T10:11:37.300Z,1027.00
2019-04-20T10:12:35.919Z,1027.08
2019-04-20T10:13:36.366Z,1027.08
2019-04-20T10:14:35.787Z,1027.12
2019-04-20T10:15:35.731Z,1027.06
2019-04-20T10:16:35.739Z,1027.07
2019-04-20T10:17:36.881Z,1027.04
2019-04-20T10:18:41.386Z,1027.02
2019-04-20T10:19:38.697Z,1027.02
2019-04-20T10:20:38.278Z,1026.97
2019-04-20T10:21:35.982Z,1027.04
2019-04-20T10:22:36.434Z,1027.07
2019-04-20T10:23:36.540Z,1027.09
2019-04-20T10:24:35.164Z,1027.16
2019-04-20T10:25:36.307Z,1027.24
2019-04-20T10:26:35.033Z,1027.20
2019-04-20T10:27:34.979Z,1027.24
2019-04-20T10:28:34.932Z,1027.24
2019-04-20T10:29:35.547Z,1027.32
2019-04-20T10:30:34.769Z,1027.34
2019-04-20T10:31:42.180Z,1027.35
2019-04-20T10:32:39.364Z,1027.39
2019-04-20T10:33:35.524Z,1027.51
2019-04-20T10:34:34.722Z,1027.61
2019-04-20T10:35:35.817Z,1027.65
2019-04-20T10:36:35.330Z,1027.73
2019-04-20T10:37:35.478Z,1027.81
2019-04-20T10:38:36.401Z,1027.92
2019-04-20T10:39:34.333Z,1028.01
2019-04-20T10:40:50.320Z,1028.13
2019-04-20T10:41:44.654Z,1028.09
2019-04-20T10:42:34.288Z,1028.05
2019-04-20T10:43:35.051Z,1028.00
2019-04-20T10:44:34.732Z,1027.94
2019-04-20T10:45:34.918Z,1027.92
2019-04-20T10:46:33.717Z,1027.97
2019-04-20T10:47:34.844Z,1027.92
2019-04-20T10:48:41.350Z,1027.80
2019-04-20T10:49:33.524Z,1027.76
2019-04-20T10:50:34.514Z,1027.73
2019-04-20T10:51:33.649Z,1027.76
2019-04-20T10:52:33.927Z,1027.79
2019-04-20T10:53:33.286Z,1027.84
2019-04-20T10:54:34.369Z,1027.75
2019-04-20T10:55:33.525Z,1027.70
2019-04-20T10:56:33.732Z,1027.68
2019-04-20T10:57:33.381Z,1027.75
2019-04-20T10:58:33.752Z,1027.81
2019-04-20T10:59:33.968Z,1027.88
2019-04-20T11:00:33.406Z,1027.93
2019-04-20T11:01:33.737Z,1028.01
2019-04-20T11:02:34.965Z,1027.88
2019-04-20T11:03:32.632Z,1027.83
2019-04-20T11:04:32.785Z,1027.74
2019-04-20T11:05:32.819Z,1027.71
2019-04-20T11:06:32.454Z,1027.73
2019-04-20T11:07:32.579Z,1027.71
2019-04-20T11:08:32.886Z,1027.57
2019-04-20T11:09:32.506Z,1027.54
2019-04-20T11:10:49.182Z,1027.47
2019-04-20T11:11:33.689Z,1027.45
2019-04-20T11:12:32.537Z,1027.49
2019-04-20T11:13:33.171Z,1027.47
2019-04-20T11:14:36.340Z,1027.48
2019-04-20T11:15:32.484Z,1027.42
2019-04-20T11:16:32.793Z,1027.24
2019-04-20T11:17:31.921Z,1027.16
2019-04-20T11:18:31.758Z,1027.07
2019-04-20T11:19:31.701Z,1027.03
2019-04-20T11:20:31.516Z,1027.01
2019-04-20T11:21:32.327Z,1026.97
2019-04-20T11:22:32.561Z,1026.88
2019-04-20T11:23:32.111Z,1026.90
2019-04-20T11:24:32.282Z,1026.92
2019-04-20T11:25:32.373Z,1026.93
2019-04-20T11:26:32.155Z,1026.95
2019-04-20T11:27:32.165Z,1026.88
2019-04-20T11:28:32.260Z,1026.79
2019-04-20T11:29:31.910Z,1026.73
2019-04-20T11:30:32.094Z,1026.63
2019-04-20T11:31:38.435Z,1026.61
2019-04-20T11:32:30.743Z,1026.64
2019-04-20T11:33:31.998Z,1026.59
2019-04-20T11:34:34.008Z,1026.49
2019-04-20T11:35:36.155Z,1026.46
2019-04-20T11:36:31.040Z,1026.41
2019-04-20T11:37:31.047Z,1026.40
2019-04-20T11:38:30.355Z,1026.39
2019-04-20T11:39:30.309Z,1026.31
2019-04-20T11:40:30.852Z,1026.25
2019-04-20T11:41:33.679Z,1026.22
2019-04-20T11:42:30.094Z,1026.15
2019-04-20T11:43:31.410Z,1026.22
2019-04-20T11:44:31.594Z,1026.15
2019-04-20T11:45:30.927Z,1026.14
2019-04-20T11:46:30.500Z,1026.14
2019-04-20T11:47:29.760Z,1026.10
2019-04-20T11:48:29.713Z,1026.05
2019-04-20T11:49:29.644Z,1026.10
2019-04-20T11:50:29.616Z,1026.07
2019-04-20T11:51:29.811Z,1026.01
2019-04-20T11:52:33.225Z,1026.01
2019-04-20T11:53:30.456Z,1025.94
2019-04-20T11:54:30.416Z,1025.86
2019-04-20T11:55:30.488Z,1025.83
2019-04-20T11:56:33.521Z,1025.83
2019-04-20T11:57:29.332Z,1025.75
2019-04-20T11:58:30.283Z,1025.79
2019-04-20T11:59:30.390Z,1025.77
2019-04-20T12:00:29.891Z,1025.72
2019-04-20T12:01:36.759Z,1025.70
2019-04-20T12:02:34.520Z,1025.68
2019-04-20T12:03:38.991Z,1025.67
2019-04-20T12:04:40.649Z,1025.68
2019-04-20T12:05:37.142Z,1025.63
2019-04-20T12:06:28.949Z,1025.66
2019-04-20T12:07:29.120Z,1025.63
2019-04-20T12:08:29.298Z,1025.61
2019-04-20T12:09:29.348Z,1025.62
2019-04-20T12:10:29.608Z,1025.59
2019-04-20T12:11:37.122Z,1025.53
2019-04-20T12:12:37.112Z,1025.50
2019-04-20T12:13:28.967Z,1025.50
2019-04-20T12:14:28.453Z,1025.51
2019-04-20T12:15:28.931Z,1025.49
2019-04-20T12:16:27.904Z,1025.45
2019-04-20T12:17:27.821Z,1025.47
2019-04-20T12:18:27.753Z,1025.49
2019-04-20T12:19:28.952Z,1025.47
2019-04-20T12:20:29.009Z,1025.44
2019-04-20T12:21:28.672Z,1025.46
2019-04-20T12:22:28.284Z,1025.39
2019-04-20T12:23:28.541Z,1025.37
2019-04-20T12:24:27.377Z,1025.43
2019-04-20T12:25:28.204Z,1025.43
2019-04-20T12:26:27.253Z,1025.41
2019-04-20T12:27:27.176Z,1025.45